createdAt,value
2018-12-21T00:01:26.277Z,6.90
2018-12-21T00:03:57.227Z,6.80
2018-12-21T00:06:29.095Z,6.80
2018-12-21T00:08:57.860Z,6.80
2018-12-21T00:11:28.923Z,6.90
2018-12-21T00:13:57.714Z,6.90
2018-12-21T00:16:28.562Z,6.90
2018-12-21T00:18:59.621Z,6.80
2018-12-21T00:21:33.066Z,6.90
2018-12-21T00:24:07.005Z,6.90
2018-12-21T00:26:38.182Z,6.90
2018-12-21T00:29:08.025Z,6.80
2018-12-21T00:31:42.533Z,6.70
2018-12-21T00:37:14.669Z,6.70
2018-12-21T00:39:50.913Z,6.70
2018-12-21T00:42:30.714Z,6.70
2018-12-21T00:45:05.346Z,6.70
2018-12-21T00:47:34.340Z,6.70
2018-12-21T00:50:07.471Z,6.60
2018-12-21T00:52:37.834Z,6.60
2018-12-21T00:55:11.344Z,6.70
2018-12-21T00:57:45.083Z,6.60
2018-12-21T01:00:21.159Z,6.70
2018-12-21T01:02:50.379Z,6.60
2018-12-21T01:05:24.164Z,6.70
2018-12-21T01:07:55.299Z,6.60
2018-12-21T01:10:26.098Z,6.60
2018-12-21T01:12:57.106Z,6.70
2018-12-21T01:18:25.739Z,6.70
2018-12-21T01:20:59.058Z,6.70
2018-12-21T01:23:34.720Z,6.70
2018-12-21T01:26:08.760Z,6.70
2018-12-21T01:28:39.097Z,6.70
2018-12-21T01:31:16.644Z,6.70
2018-12-21T01:36:49.346Z,6.80
2018-12-21T01:39:18.250Z,6.80
2018-12-21T01:41:51.713Z,6.80
2018-12-21T01:44:25.365Z,6.80
2018-12-21T01:49:52.046Z,6.80
2018-12-21T01:52:25.926Z,6.90
2018-12-21T01:54:59.027Z,6.90
2018-12-21T01:57:32.854Z,6.90
2018-12-21T02:00:04.306Z,7.00
2018-12-21T02:02:33.357Z,6.90
2018-12-21T02:05:07.274Z,7.00
2018-12-21T02:07:36.236Z,7.00
2018-12-21T02:10:10.041Z,7.00
2018-12-21T02:12:44.156Z,7.00
2018-12-21T02:15:14.950Z,7.00
2018-12-21T02:17:44.171Z,7.00
2018-12-21T02:20:15.023Z,7.10
2018-12-21T02:22:46.003Z,7.10
2018-12-21T02:25:16.771Z,7.10
2018-12-21T02:27:45.789Z,7.20
2018-12-21T02:30:19.401Z,7.10
2018-12-21T02:32:49.601Z,7.10
2018-12-21T02:35:20.778Z,7.10
2018-12-21T02:37:54.341Z,7.10
2018-12-21T02:40:23.390Z,7.20
2018-12-21T02:42:54.320Z,7.20
2018-12-21T02:45:28.105Z,7.10
2018-12-21T02:48:14.929Z,7.10
2018-12-21T02:50:45.678Z,7.10
2018-12-21T02:53:14.491Z,7.20
2018-12-21T02:55:45.339Z,7.20
2018-12-21T02:58:16.392Z,7.20
2018-12-21T03:00:47.332Z,7.20
2018-12-21T03:06:13.927Z,7.20
2018-12-21T03:08:44.696Z,7.20
2018-12-21T03:11:13.671Z,7.10
2018-12-21T03:13:44.311Z,7.10
2018-12-21T03:16:13.567Z,7.10
2018-12-21T03:18:49.018Z,7.00
2018-12-21T03:21:20.469Z,7.00
2018-12-21T03:23:54.170Z,7.00
2018-12-21T03:26:24.569Z,7.10
2018-12-21T03:28:55.838Z,7.30
2018-12-21T03:31:25.017Z,7.20
2018-12-21T03:33:56.058Z,7.20
2018-12-21T03:36:26.910Z,7.20
2018-12-21T03:38:58.157Z,7.20
2018-12-21T03:41:29.148Z,7.20
2018-12-21T03:43:58.235Z,7.20
2018-12-21T03:46:31.946Z,7.20
2018-12-21T03:52:01.763Z,7.30
2018-12-21T03:54:32.824Z,7.30
2018-12-21T03:57:03.560Z,7.40
2018-12-21T03:59:34.403Z,7.40
2018-12-21T04:02:08.175Z,7.40
2018-12-21T04:04:38.549Z,7.40
2018-12-21T04:07:09.247Z,7.40
2018-12-21T04:09:40.140Z,7.50
2018-12-21T04:12:10.888Z,7.50
2018-12-21T04:14:39.944Z,7.50
2018-12-21T04:17:13.571Z,7.50
2018-12-21T04:19:44.817Z,7.40
2018-12-21T04:22:18.629Z,7.50
2018-12-21T04:24:47.732Z,7.60
2018-12-21T04:27:18.591Z,7.50
2018-12-21T04:29:47.360Z,7.60
2018-12-21T04:32:16.497Z,8.20
2018-12-21T04:34:48.384Z,7.60
2018-12-21T04:37:19.126Z,7.60
2018-12-21T04:39:52.834Z,7.60
2018-12-21T04:42:23.893Z,7.60
2018-12-21T04:44:57.692Z,7.60
2018-12-21T04:47:32.726Z,7.50
2018-12-21T04:50:05.480Z,7.60
2018-12-21T04:52:43.134Z,7.70
2018-12-21T04:55:16.061Z,7.70
2018-12-21T04:57:46.047Z,7.70
2018-12-21T05:00:16.922Z,7.80
2018-12-21T05:02:47.991Z,7.80
2018-12-21T05:05:17.298Z,7.80
2018-12-21T05:07:48.493Z,7.80
2018-12-21T05:10:17.634Z,7.80
2018-12-21T05:12:53.266Z,7.80
2018-12-21T05:15:26.368Z,7.80
2018-12-21T05:17:56.981Z,7.80
2018-12-21T05:20:26.052Z,7.70
2018-12-21T05:22:57.208Z,7.70
2018-12-21T05:25:28.419Z,7.70
2018-12-21T05:31:05.006Z,7.30
2018-12-21T05:33:42.490Z,7.20
2018-12-21T05:36:13.818Z,7.10
2018-12-21T05:38:44.682Z,7.00
2018-12-21T05:47:07.536Z,7.00
2018-12-21T05:52:34.153Z,7.00
2018-12-21T05:55:08.058Z,7.00
2018-12-21T05:57:39.224Z,6.90
2018-12-21T06:00:08.917Z,7.00
2018-12-21T06:02:37.497Z,6.90
2018-12-21T06:05:08.412Z,6.90
2018-12-21T06:07:42.009Z,6.90
2018-12-21T06:10:11.166Z,6.90
2018-12-21T06:12:42.100Z,6.90
2018-12-21T06:15:24.503Z,6.90
2018-12-21T06:20:49.585Z,7.00
2018-12-21T06:23:20.557Z,7.00
2018-12-21T06:25:51.737Z,7.00
2018-12-21T06:28:22.073Z,7.00
2018-12-21T06:31:02.559Z,6.90
2018-12-21T06:33:32.948Z,7.00
2018-12-21T06:36:02.302Z,7.00
2018-12-21T06:38:36.101Z,7.10
2018-12-21T06:41:06.554Z,7.00
2018-12-21T06:43:37.818Z,7.00
2018-12-21T06:46:14.220Z,7.10
2018-12-21T06:48:44.135Z,7.10
2018-12-21T06:51:21.450Z,7.10
2018-12-21T06:53:51.819Z,7.10
2018-12-21T06:56:24.971Z,7.20
2018-12-21T06:58:54.213Z,7.20
2018-12-21T07:01:23.515Z,7.20
2018-12-21T07:03:59.187Z,7.30
2018-12-21T07:06:33.472Z,7.20
2018-12-21T07:09:06.982Z,7.20
2018-12-21T07:11:38.217Z,7.30
2018-12-21T07:14:09.352Z,7.20
2018-12-21T07:16:40.323Z,7.20
2018-12-21T07:19:08.671Z,7.10
2018-12-21T07:21:42.575Z,7.60
2018-12-21T07:24:11.756Z,7.20
2018-12-21T07:26:42.692Z,7.20
2018-12-21T07:29:11.669Z,7.20
2018-12-21T07:31:40.977Z,7.20
2018-12-21T07:34:12.030Z,7.20
2018-12-21T07:36:43.258Z,7.10
2018-12-21T07:39:20.946Z,7.10
2018-12-21T07:41:52.135Z,7.10
2018-12-21T07:44:23.386Z,7.10
2018-12-21T07:46:54.424Z,7.20
2018-12-21T07:52:24.581Z,7.20
2018-12-21T07:54:53.557Z,7.20
2018-12-21T07:57:24.774Z,7.30
2018-12-21T08:00:00.702Z,7.30
2018-12-21T08:02:32.029Z,7.30
2018-12-21T08:05:01.251Z,7.30
2018-12-21T08:07:31.616Z,7.30
2018-12-21T08:10:04.678Z,7.30
2018-12-21T08:12:33.943Z,7.30
2018-12-21T08:15:05.419Z,7.40
2018-12-21T08:17:36.345Z,7.30
2018-12-21T08:20:07.331Z,7.40
2018-12-21T08:22:38.203Z,7.40
2018-12-21T08:25:07.385Z,7.50
2018-12-21T08:27:38.330Z,7.50
2018-12-21T08:30:09.428Z,7.60
2018-12-21T08:32:38.660Z,7.50
2018-12-21T08:35:09.214Z,7.60
2018-12-21T08:37:57.394Z,7.60
2018-12-21T08:40:33.118Z,7.70
2018-12-21T08:43:13.823Z,7.80
2018-12-21T08:48:52.920Z,7.80
2018-12-21T08:51:35.985Z,7.80
2018-12-21T08:54:09.953Z,7.80
2018-12-21T08:56:39.020Z,7.80
2018-12-21T08:59:12.903Z,7.80
2018-12-21T09:01:50.151Z,7.90
2018-12-21T09:04:31.998Z,7.90
2018-12-21T09:06:57.911Z,7.80
2018-12-21T09:09:31.921Z,7.90
2018-12-21T09:12:13.941Z,7.80
2018-12-21T09:14:48.270Z,7.90
2018-12-21T09:17:18.700Z,7.90
2018-12-21T09:19:49.842Z,7.90
2018-12-21T09:22:23.752Z,8.00
2018-12-21T09:24:57.984Z,7.90
2018-12-21T09:27:31.137Z,8.00
2018-12-21T09:30:02.195Z,8.10
2018-12-21T09:32:33.385Z,8.10
2018-12-21T09:35:07.198Z,8.20
2018-12-21T09:37:43.088Z,8.20
2018-12-21T09:40:17.157Z,8.30
2018-12-21T09:42:53.533Z,8.30
2018-12-21T09:45:22.157Z,8.30
2018-12-21T09:47:52.722Z,8.20
2018-12-21T09:53:06.935Z,8.30
2018-12-21T09:58:20.363Z,8.30
2018-12-21T10:00:51.551Z,8.30
2018-12-21T10:03:22.702Z,8.40
2018-12-21T10:05:53.624Z,8.40
2018-12-21T10:08:24.557Z,8.40
2018-12-21T10:11:04.923Z,8.50
2018-12-21T10:13:35.574Z,8.50
2018-12-21T10:16:04.728Z,8.50
2018-12-21T10:18:35.092Z,8.70
2018-12-21T10:21:06.342Z,8.70
2018-12-21T10:23:48.738Z,8.70
2018-12-21T10:26:22.038Z,8.80
2018-12-21T10:28:51.351Z,8.70
2018-12-21T10:31:22.784Z,8.70
2018-12-21T10:33:52.048Z,8.80
2018-12-21T10:36:22.369Z,8.80
2018-12-21T10:38:53.471Z,8.90
2018-12-21T10:41:29.182Z,8.90
2018-12-21T10:44:06.856Z,9.00
2018-12-21T10:46:44.150Z,9.00
2018-12-21T10:49:32.076Z,9.00
2018-12-21T10:52:06.020Z,9.10
2018-12-21T10:54:34.877Z,9.10
2018-12-21T11:00:08.389Z,9.20
2018-12-21T11:05:38.669Z,9.30
2018-12-21T11:08:09.044Z,9.30
2018-12-21T11:10:46.711Z,9.30
2018-12-21T11:13:20.758Z,9.40
2018-12-21T11:15:51.682Z,9.40
2018-12-21T11:18:27.207Z,9.50
2018-12-21T11:20:58.269Z,9.50
2018-12-21T11:23:40.649Z,9.60
2018-12-21T11:26:13.869Z,9.60
2018-12-21T11:28:44.898Z,9.60
2018-12-21T11:31:13.949Z,9.70
2018-12-21T11:33:44.825Z,9.80
2018-12-21T11:36:15.830Z,9.90
2018-12-21T11:38:49.199Z,10.00
2018-12-21T11:41:20.425Z,10.10
2018-12-21T11:44:00.693Z,10.30
2018-12-21T11:49:27.813Z,10.70
2018-12-21T11:51:55.281Z,10.80
2018-12-21T11:57:25.769Z,11.10
2018-12-21T12:02:56.373Z,11.30
2018-12-21T12:05:23.884Z,11.30
2018-12-21T12:07:51.316Z,11.40
2018-12-21T12:13:18.152Z,11.60
2018-12-21T12:15:45.584Z,11.70
2018-12-21T12:18:13.121Z,11.60
2018-12-21T12:26:50.285Z,11.90
2018-12-21T12:32:24.870Z,11.90
2018-12-21T12:34:52.302Z,11.70
2018-12-21T12:40:24.931Z,11.90
2018-12-21T12:42:58.372Z,12.00
2018-12-21T12:45:25.798Z,12.10
2018-12-21T12:47:53.226Z,12.20
2018-12-21T12:50:20.896Z,12.30
2018-12-21T12:52:48.324Z,12.30
2018-12-21T12:55:36.888Z,12.40
2018-12-21T13:00:57.124Z,12.40
2018-12-21T13:03:24.584Z,12.40
2018-12-21T13:05:52.065Z,12.40
2018-12-21T13:08:19.571Z,12.50
2018-12-21T13:10:47.001Z,12.50
2018-12-21T13:13:14.457Z,12.50
2018-12-21T13:15:41.968Z,12.50
2018-12-21T13:18:12.709Z,12.50
2018-12-21T13:20:40.173Z,12.50
2018-12-21T13:23:07.621Z,12.40
2018-12-21T13:25:35.074Z,12.30
2018-12-21T13:28:02.617Z,12.30
2018-12-21T13:30:30.054Z,12.30
2018-12-21T13:32:57.481Z,12.30
2018-12-21T13:35:24.900Z,12.20
2018-12-21T13:37:52.353Z,12.30
2018-12-21T13:40:19.781Z,12.20
2018-12-21T13:42:47.214Z,12.10
2018-12-21T13:45:14.633Z,12.00
2018-12-21T13:47:42.060Z,11.90
2018-12-21T13:50:10.650Z,12.00
2018-12-21T13:52:38.140Z,12.00
2018-12-21T13:55:05.629Z,12.00
2018-12-21T13:57:33.137Z,12.00
2018-12-21T14:00:02.485Z,12.20
2018-12-21T14:02:29.925Z,12.40
2018-12-21T14:04:57.348Z,12.30
2018-12-21T14:07:24.891Z,12.30
2018-12-21T14:09:52.427Z,12.30
2018-12-21T14:12:19.853Z,12.30
2018-12-21T14:14:47.271Z,12.30
2018-12-21T14:17:14.699Z,12.20
2018-12-21T14:19:42.129Z,12.20
2018-12-21T14:22:09.567Z,12.30
2018-12-21T14:24:36.991Z,12.20
2018-12-21T14:27:04.465Z,12.10
2018-12-21T14:29:31.889Z,12.30
2018-12-21T14:31:59.311Z,12.40
2018-12-21T14:34:26.812Z,12.50
2018-12-21T14:36:54.244Z,12.50
2018-12-21T14:39:21.714Z,12.50
2018-12-21T14:41:49.141Z,12.50
2018-12-21T14:44:16.556Z,12.50
2018-12-21T14:46:44.055Z,12.60
2018-12-21T14:49:11.480Z,12.60
2018-12-21T14:51:38.905Z,12.50
2018-12-21T14:54:06.333Z,12.50
2018-12-21T14:56:33.765Z,12.60
2018-12-21T14:59:01.269Z,12.50
2018-12-21T15:01:28.836Z,12.60
2018-12-21T15:03:56.258Z,12.50
2018-12-21T15:06:23.719Z,12.40
2018-12-21T15:08:51.155Z,12.40
2018-12-21T15:11:18.616Z,12.40
2018-12-21T15:13:46.076Z,12.50
2018-12-21T15:16:13.540Z,12.40
2018-12-21T15:18:40.992Z,12.40
2018-12-21T15:21:08.412Z,12.50
2018-12-21T15:23:35.837Z,12.50
2018-12-21T15:26:03.353Z,12.60
2018-12-21T15:28:30.772Z,12.60
2018-12-21T15:30:58.203Z,12.50
2018-12-21T15:33:25.628Z,12.50
2018-12-21T15:35:53.048Z,12.40
2018-12-21T15:38:20.473Z,12.40
2018-12-21T15:40:47.912Z,12.30
2018-12-21T15:43:15.349Z,12.30
2018-12-21T15:45:42.776Z,12.40
2018-12-21T15:48:10.236Z,12.30
2018-12-21T15:50:37.656Z,12.30
2018-12-21T15:53:05.085Z,12.20
2018-12-21T15:55:32.554Z,12.30
2018-12-21T15:57:59.972Z,12.30
2018-12-21T16:00:27.428Z,12.20
2018-12-21T16:02:54.867Z,12.20
2018-12-21T16:05:22.446Z,12.10
2018-12-21T16:07:49.934Z,12.10
2018-12-21T16:10:17.382Z,12.10
2018-12-21T16:12:44.847Z,12.10
2018-12-21T16:15:12.281Z,12.00
2018-12-21T16:17:39.697Z,12.00
2018-12-21T16:20:09.693Z,11.90
2018-12-21T16:22:42.360Z,11.90
2018-12-21T16:25:06.573Z,11.80
2018-12-21T16:27:34.000Z,11.80
2018-12-21T16:30:01.438Z,11.80
2018-12-21T16:32:28.936Z,11.80
2018-12-21T16:34:56.476Z,11.80
2018-12-21T16:37:23.910Z,11.80
2018-12-21T16:39:51.338Z,11.80
2018-12-21T16:42:18.760Z,11.70
2018-12-21T16:44:46.196Z,11.70
2018-12-21T16:47:20.247Z,11.70
2018-12-21T16:55:55.759Z,11.60
2018-12-21T17:01:34.981Z,11.90
2018-12-21T17:04:19.632Z,12.10
2018-12-21T17:15:49.977Z,12.10
2018-12-21T17:18:21.505Z,12.20
2018-12-21T17:20:55.563Z,12.10
2018-12-21T17:23:33.053Z,12.20
2018-12-21T17:26:03.483Z,12.20
2018-12-21T17:28:32.414Z,12.10
2018-12-21T17:33:58.447Z,12.00
2018-12-21T17:36:29.381Z,12.10
2018-12-21T17:41:56.957Z,12.00
2018-12-21T17:44:28.164Z,11.90
2018-12-21T17:47:08.705Z,11.90
2018-12-21T17:49:36.191Z,11.90
2018-12-21T17:52:07.128Z,11.90
2018-12-21T17:54:41.642Z,11.90
2018-12-21T17:57:10.740Z,11.70
2018-12-21T17:59:39.700Z,11.80
2018-12-21T18:02:10.647Z,11.80
2018-12-21T18:04:39.561Z,11.90
2018-12-21T18:07:08.519Z,12.00
2018-12-21T18:09:37.589Z,12.00
2018-12-21T18:12:11.118Z,12.00
2018-12-21T18:14:44.959Z,11.90
2018-12-21T18:17:18.785Z,12.00
2018-12-21T18:19:47.878Z,11.90
2018-12-21T18:22:25.505Z,11.90
2018-12-21T18:24:59.616Z,11.90
2018-12-21T18:27:32.803Z,11.80
2018-12-21T18:30:03.434Z,11.90
2018-12-21T18:32:32.380Z,11.80
2018-12-21T18:35:03.108Z,11.90
2018-12-21T18:37:34.017Z,11.80
2018-12-21T18:40:06.921Z,11.80
2018-12-21T18:42:38.156Z,11.60
2018-12-21T18:45:09.079Z,11.70
2018-12-21T18:47:37.868Z,11.70
2018-12-21T18:50:10.117Z,11.70
2018-12-21T18:52:43.569Z,11.60
2018-12-21T18:55:14.918Z,11.70
2018-12-21T18:57:45.869Z,11.60
2018-12-21T19:00:16.970Z,11.70
2018-12-21T19:02:46.992Z,11.70
2018-12-21T19:05:17.996Z,11.70
2018-12-21T19:07:49.076Z,11.70
2018-12-21T19:10:19.743Z,11.60
2018-12-21T19:12:53.495Z,11.50
2018-12-21T19:15:27.275Z,11.60
2018-12-21T19:20:53.917Z,11.60
2018-12-21T19:23:27.553Z,11.60
2018-12-21T19:26:01.324Z,11.50
2018-12-21T19:28:35.338Z,11.50
2018-12-21T19:31:06.602Z,11.50
2018-12-21T19:33:40.433Z,11.50
2018-12-21T19:36:14.435Z,11.70
2018-12-21T19:41:51.221Z,11.70
2018-12-21T19:44:21.912Z,11.60
2018-12-21T19:46:55.681Z,11.70
2018-12-21T19:49:26.916Z,11.60
2018-12-21T19:52:07.412Z,11.60
2018-12-21T19:54:37.870Z,11.60
2018-12-21T19:57:15.213Z,11.50
2018-12-21T19:59:49.261Z,11.60
2018-12-21T20:05:31.575Z,11.50
2018-12-21T20:08:02.895Z,11.50
2018-12-21T20:10:42.943Z,11.50
2018-12-21T20:13:13.363Z,11.50
2018-12-21T20:15:44.326Z,11.30
2018-12-21T20:18:15.306Z,11.30
2018-12-21T20:20:48.838Z,11.30
2018-12-21T20:23:29.342Z,11.30
2018-12-21T20:26:02.742Z,11.20
2018-12-21T20:28:37.208Z,11.10
2018-12-21T20:31:17.790Z,11.20
2018-12-21T20:36:48.686Z,11.20
2018-12-21T20:39:19.984Z,11.30
2018-12-21T20:44:56.546Z,11.20
2018-12-21T20:47:30.288Z,11.20
2018-12-21T20:52:58.199Z,11.10
2018-12-21T20:55:31.869Z,11.10
2018-12-21T20:58:03.729Z,11.10
2018-12-21T21:00:50.186Z,11.10
2018-12-21T21:03:25.285Z,11.00
2018-12-21T21:05:59.130Z,11.00
2018-12-21T21:08:28.180Z,10.90
2018-12-21T21:10:59.189Z,10.90
2018-12-21T21:13:29.771Z,10.90
2018-12-21T21:16:03.040Z,11.00
2018-12-21T21:18:34.294Z,11.10
2018-12-21T21:27:01.822Z,11.10
2018-12-21T21:29:32.714Z,11.00
2018-12-21T21:32:03.663Z,10.90
2018-12-21T21:34:37.398Z,10.90
2018-12-21T21:37:06.689Z,10.80
2018-12-21T21:39:40.256Z,10.90
2018-12-21T21:42:11.986Z,10.90
2018-12-21T21:44:42.616Z,10.90
2018-12-21T21:47:13.370Z,10.80
2018-12-21T21:49:47.145Z,10.80
2018-12-21T21:52:18.647Z,10.80
2018-12-21T21:54:47.747Z,10.80
2018-12-21T21:57:18.406Z,10.80
2018-12-21T21:59:47.244Z,10.80
2018-12-21T22:02:18.318Z,10.80
2018-12-21T22:04:47.370Z,10.80
2018-12-21T22:07:18.171Z,10.80
2018-12-21T22:09:49.266Z,10.80
2018-12-21T22:12:18.042Z,10.80
2018-12-21T22:14:47.012Z,10.80
2018-12-21T22:17:18.087Z,10.80
2018-12-21T22:19:51.731Z,10.70
2018-12-21T22:22:22.791Z,10.60
2018-12-21T22:24:53.642Z,10.60
2018-12-21T22:27:22.532Z,10.60
2018-12-21T22:29:51.441Z,10.60
2018-12-21T22:32:22.622Z,10.60
2018-12-21T22:34:53.285Z,10.60
2018-12-21T22:37:22.334Z,10.50
2018-12-21T22:39:53.210Z,10.50
2018-12-21T22:42:21.919Z,10.60
2018-12-21T22:44:52.603Z,10.50
2018-12-21T22:47:26.276Z,10.50
2018-12-21T22:49:55.292Z,10.50
2018-12-21T22:52:28.945Z,10.50
2018-12-21T22:54:59.999Z,10.50
2018-12-21T22:57:40.083Z,10.60
2018-12-21T23:00:11.100Z,10.50
2018-12-21T23:05:35.571Z,10.50
2018-12-21T23:08:07.615Z,10.50
2018-12-21T23:10:38.458Z,10.50
2018-12-21T23:13:07.291Z,10.40
2018-12-21T23:15:55.110Z,10.30
2018-12-21T23:18:25.943Z,10.30
2018-12-21T23:20:56.969Z,10.20
2018-12-21T23:23:30.840Z,10.20
2018-12-21T23:26:11.350Z,10.20
2018-12-21T23:28:44.510Z,10.20
2018-12-21T23:31:13.808Z,10.20
2018-12-21T23:33:45.025Z,10.20
2018-12-21T23:36:18.645Z,10.10
2018-12-21T23:38:50.834Z,10.00
2018-12-21T23:41:21.785Z,9.90
2018-12-21T23:43:56.316Z,10.00
2018-12-21T23:46:25.572Z,10.10
2018-12-21T23:48:56.421Z,10.00
2018-12-21T23:51:30.273Z,10.10
2018-12-21T23:54:04.801Z,10.10
2018-12-21T23:56:38.513Z,10.10
2018-12-21T23:59:12.570Z,10.00
